Terminal Aerodrome Forecast
Issued by NWS Detroit/Pontiac, MI

Home | Current Version | Previous Version | Text Only | Print | Product List | Glossary On
Versions: 1 2 3 4 5 6 7 8 9 10 11 12 13 14 15 16 17 18 19 20 21 22 23 24 25 26
688
FTUS43 KDTX 271120
TAFDTW
TAF
KDTW 271120Z 2712/2818 29008KT P6SM SCT040 SCT060
     FM271600 30012G18KT P6SM BKN060
     FM272300 27008KT P6SM FEW050
     FM280400 24004KT P6SM SKC
     FM281500 21011KT P6SM SCT250=

USA.gov is the U.S. government's official web portal to all federal, state and local government web resources and services.